Check time and date!

LGTT 182200Z 02007KT 9999 SCT025 22/21 Q1012 RMK FEW080
TAF LGTT 181000Z 1812/1821 17013KT 9999 FEW012 SCT025 TEMPO 1812/1815 17010G20KT PROB40 TEMPO 1812/1821 5000 RA SCT010 FEW018TCU BKN025 PROB30 TEMPO 1812/1815 4000 TSRA SCT008 FEW018CB BKN020
--------------------------------------
LGMG 181500Z 00000KT 9999 SCT025 28/21 Q1008 RMK SCT080
TAF LGMG 181000Z NIL
--------------------------------------
LGTG 182150Z 06005KT 9999 FEW018 SCT030 22/18 Q1011 RMK FEW080
--------------------------------------
LGEL 182250Z 08007KT 9999 FEW018 SCT025 25/19 Q1010 RMK SCT070
TAF LGEL 181700Z 1818/1918 13015G25KT 9999 SCT012 BKN020 BKN070 BECMG 1909/1911 05018G28KT PROB40 TEMPO 1818/1916 5000 RA SCT010 FEW016TCU BKN020 PROB30 TEMPO 1818/1903 4000 TSRA SCT008 FEW016CB OVC020 PROB40 TEMPO 1903/1915 2000 TSRA SCT006 SCT018CB OVC020
--------------------------------------
LGAV 182250Z 09007KT 9999 FEW020 BKN030 23/19 Q1011 RMK FEW080 NOSIG
TAF LGAV 181700Z 1818/1918 18015KT 9999 SCT020 BKN070 TEMPO 1818/1821 18015G25KT PROB40 TEMPO 1818/1916 5000 RA SCT012 FEW018TCU BKN020 PROB40 TEMPO 1818/1914 3000 TSRA SCT008 SCT016CB OVC020 BECMG 1903/1905 11015KT BECMG 1910/1912 03015G25KT
--------------------------------------
LGAT 182300Z AUTO 05006KT 010V170 //// // ////// 24/20 Q1010 RE//
--------------------------------------
METAR LGAD 182250Z 35007KT 8000 -RA FEW012 FEW018TCU BKN025 OVC080 21/20 Q1008
METAR LGAL 182250Z 03016G26KT 9999 FEW025 22/16 Q1017
METAR LGAV 182250Z 09007KT 9999 FEW020 BKN030 23/19 Q1011 NOSIG
METAR LGBL 182250Z 07020G30KT 6000 TS FEW010 FEW018CB BKN025 OVC080 25/19 Q1013
METAR LGEL 182250Z 08007KT 9999 FEW018 SCT025 25/19 Q1010
METAR LGHI 182250Z 00000KT CAVOK 22/19 Q1013
METAR LGIO 182250Z AUTO 02005KT 210V200 //// // ////// 23/12 Q1014 RE//
METAR LGIR 182250Z 17011KT 9999 FEW020 24/20 Q1013 NOSIG
METAR LGKL 182250Z 10006KT 9999 FEW007 FEW020TCU BKN025 BKN080 21/20 Q1010
METAR LGKO 182250Z 30005KT CAVOK 24/21 Q1014
METAR LGKP 182300Z AUTO 30004KT //// // ////// 24/21 Q1013 RE//
METAR LGKR 182250Z /////KT 9999 -RA FEW055 OVC080 21/20 Q1012 NOSIG
METAR LGKV 182250Z 07010KT 9999 FEW030 22/15 Q1017
METAR LGKZ 182250Z AUTO 04014KT 020V080 //// // ////// 21/09 Q1018 RE//
METAR LGLM 182250Z 05010G20KT CAVOK 23/17 Q1015
METAR LGLR 182250Z 08018KT 6000 FEW008 FEW018CB BKN025 OVC080 23/19 Q1014 RERA RMK CB W 6KM WHT
METAR LGMT 182250Z 00000KT 9999 FEW025 25/19 Q1014
METAR LGPA 182250Z AUTO 19009KT //// // ////// 25/21 Q1013 RE//
METAR LGPZ 182250Z 02005KT 9999 SCT008 FEW018TCU BKN025 OVC070 21/19 Q1011
METAR LGRP 182250Z 27008KT CAVOK 26/22 Q1012 NOSIG
METAR LGRX 182250Z 00000KT 9999 FEW018TCU BKN025 BKN080 22/20 Q1008
METAR LGSA 182250Z 00000KT 9999 FEW018 24/20 Q1012
METAR LGSM 182250Z 27007KT 9999 FEW025 23/19 Q1013
METAR LGSR 182250Z 18006KT 9999 FEW015 25/21 Q1013
METAR LGTG 182150Z 06005KT 9999 FEW018 SCT030 22/18 Q1011 RMK FEW080 BLU
METAR LGTS 182250Z 13008KT 9999 SCT030 26/14 Q1016 NOSIG

--------------------------------------
TAF LGAD 182300Z 1900/1909 35020G30KT 9999 SCT015 BKN020 OVC080 TEMPO 1900/1909 5000 RA TEMPO 1900/1909 3000 TSRA FEW018CB BKN020 OVC080
TAF LGAL 182000Z 1821/1906 04020G30KT 9999 FEW020
TAF LGAV 181700Z 1818/1918 18015KT 9999 SCT020 BKN070 TEMPO 1818/1821 18015G25KT PROB40 TEMPO 1818/1916 5000 RA SCT012 FEW018TCU BKN020 PROB40 TEMPO 1818/1914 3000 TSRA SCT008 SCT016CB OVC020 BECMG 1903/1905 11015KT BECMG 1910/1912 03015G25KT
TAF LGBL 182300Z 1900/1909 08020G35KT 9999 FEW015 BKN025 BKN080 TEMPO 1900/1909 5000 RA TEMPO 1900/1909 3000 TSRA FEW018CB BKN020 OVC080
TAF LGEL 181700Z 1818/1918 13015G25KT 9999 SCT012 BKN020 BKN070 BECMG 1909/1911 05018G28KT PROB40 TEMPO 1818/1916 5000 RA SCT010 FEW016TCU BKN020 PROB30 TEMPO 1818/1903 4000 TSRA SCT008 FEW016CB OVC020 PROB40 TEMPO 1903/1915 2000 TSRA SCT006 SCT018CB OVC020
TAF LGHI 182000Z 1821/1906 VRB05KT 9999 FEW020 BECMG 1903/1905 01012KT
TAF LGIO 182000Z 1821/1906 04015KT 9999 FEW010 SCT030 BKN080 PROB40 TEMPO 1821/1906 5000 RA SCT010 FEW018TCU BKN020 OVC070
TAF LGIR 181700Z 1818/1918 VRB05KT 9999 SCT020 SCT070 PROB30 TEMPO 1905/1918 5000 RA FEW018TCU BKN020 BKN080 TEMPO 1819/1906 19010KT
TAF LGKC 182000Z 1821/1906 25020KT 8000 FEW008 FEW018TCU BKN020 TEMPO 1821/1906 3000 RA SCT005 SCT016TCU BKN020 TEMPO 1821/1906 2000 TSRA SCT005 FEW018CB BKN020
TAF LGKF 182000Z 1821/1906 34022G32KT 5000 SCT008 BKN020 OVC070 TEMPO 1821/1906 3000 RA PROB40 TEMPO 1821/1903 2000 TSRA SCT004 SCT016CB BKN020 BECMG 1901/1903 01020G30KT
TAF LGKL 182300Z 1900/1909 17015G28KT 9999 SCT015 BKN020 OVC080 TEMPO 1900/1909 5000 RA TEMPO 1900/1909 3000 TSRA FEW018CB BKN020 OVC080
TAF LGKO 181700Z 1818/1918 32010KT 9999 FEW020
TAF LGKP 182300Z 1900/1909 27012KT 9999 FEW018
TAF LGKR 181700Z 1818/1918 35012KT 9999 SCT020 BKN070 TEMPO 1822/1906 01012G22KT PROB40 TEMPO 1818/1824 5000 RA SCT010 FEW018TCU OVC025
TAF LGKV 181700Z 1818/1918 07015KT 9999 FEW025 SCT080 BECMG 1822/1824 9999 FEW030 TEMPO 1821/1912 07015G25KT
TAF LGLM 182300Z 1900/1909 07025G35KT 9999 FEW020
TAF LGLR 182300Z 1900/1909 08015G25KT 9999 FEW015 BKN025 BKN080 TEMPO 1900/1909 5000 RA TEMPO 1900/1909 3000 TSRA FEW018CB BKN020 OVC080
TAF LGMK 182000Z 1821/1906 18015KT 9999 FEW010 SCT020 PROB30 TEMPO 1821/1824 5000 RA SCT008 FEW018TCU BKN020 TEMPO 1900/1906 5000 RA SCT008 FEW018TCU BKN020 PROB30 TEMPO 1902/1906 4000 TSRA SCT006 FEW018CB BKN020 BECMG 1900/1902 11015KT
TAF LGMT 182000Z 1821/1906 02012KT 9999 FEW020 TEMPO 1821/1903 FEW025TCU
TAF LGPZ 181700Z 1818/1918 35015KT 8000 FEW008 SCT025 BKN070 PROB40 TEMPO 1818/1915 4000 RA SCT008 FEW018TCU BKN025 PROB40 TEMPO 1818/1912 3000 TSRA SCT005 FEW016CB OVC020 BECMG 1906/1908 06015KT
TAF LGRP 181700Z 1818/1918 26014KT 9999 FEW015
TAF LGRX 182300Z 1900/1909 02020G30KT 9999 SCT015 BKN020 OVC080 TEMPO 1900/1909 5000 RA TEMPO 1900/1909 3000 TSRA FEW018CB BKN020 OVC080
TAF LGSA 181700Z 1818/1918 25015KT 9999 SCT018 SCT080 TEMPO 1903/1918 VRB05KT PROB30 TEMPO 1818/1918 5000 RA FEW018TCU BKN020 BKN070 PROB30 TEMPO 1900/1918 4000 TSRA SCT008 FEW018CB BKN020 BKN070
TAF LGSK 182000Z 1821/1906 03018G28KT 7000 FEW010 FEW018TCU BKN025 TEMPO 1821/1906 4000 RA SCT008 SCT018TCU BKN020 PROB40 TEMPO 1821/1902 2000 TSRA SCT006 SCT016CB OVC020 BECMG 1900/1902 04025G35KT
TAF LGSM 182000Z 1821/1906 VRB05KT 9999 FEW020
TAF LGSR 181700Z 1818/1918 24012KT 9999 SCT018 BECMG 1901/1903 10010KT
TAF LGST 182000Z 1821/1906 VRB05KT 9999 FEW020
TAF LGSY 182300Z 1900/1909 10025G35KT 9999 SCT015 SCT030 TEMPO 1900/1906 5000 RA SCT015 BKN025 PROB40 TEMPO 1900/1903 3000 TSRA FEW018CB BKN020
TAF LGTG 182300Z 1900/1909 05015G25KT 9999 FEW015 BKN025 BKN070 TEMPO 1900/1909 5000 RA TEMPO 1900/1909 3000 TSRA FEW018CB BKN020 OVC070
TAF LGTL 182300Z 1900/1909 18010KT 9999 FEW020 SCT080
TAF LGTS 181700Z 1818/1918 06015KT 9999 SCT025 PROB40 TEMPO 1818/1906 7000 RA FEW010 SCT020 BECMG 1910/1912 20010KT FEW025
TAF LGZA 182000Z 1821/1906 31022G32KT 4000 SCT008 BKN020 OVC070 TEMPO 1821/1906 2000 RA BKN006 FEW018TCU BKN020 PROB40 TEMPO 1821/1906 1000 TSRA BKN005 SCT016CB BKN020 BECMG 1823/1901 02022G32KT